createdAt,value
2024-03-08T00:00:09.763Z,853.00
2024-03-08T00:01:09.707Z,851.00
2024-03-08T00:02:09.721Z,851.00
2024-03-08T00:03:09.733Z,852.00
2024-03-08T00:04:09.713Z,849.00
2024-03-08T00:05:09.726Z,845.00
2024-03-08T00:06:09.713Z,845.00
2024-03-08T00:07:09.708Z,844.00
2024-03-08T00:08:09.696Z,847.00
2024-03-08T00:09:09.742Z,846.00
2024-03-08T00:10:09.769Z,845.00
2024-03-08T00:11:09.769Z,847.00
2024-03-08T00:12:09.811Z,847.00
2024-03-08T00:13:09.728Z,847.00
2024-03-08T00:14:09.734Z,847.00
2024-03-08T00:15:09.793Z,846.00
2024-03-08T00:16:09.720Z,850.00
2024-03-08T00:17:09.733Z,851.00
2024-03-08T00:18:09.787Z,848.00
2024-03-08T00:19:09.734Z,840.00
2024-03-08T00:20:09.755Z,836.00
2024-03-08T00:21:09.812Z,838.00
2024-03-08T00:22:09.746Z,835.00
2024-03-08T00:23:09.738Z,835.00
2024-03-08T00:24:09.855Z,837.00
2024-03-08T00:25:09.916Z,839.00
2024-03-08T00:26:09.899Z,838.00
2024-03-08T00:27:15.025Z,839.00
2024-03-08T00:28:10.011Z,837.00
2024-03-08T00:29:10.010Z,835.00
2024-03-08T00:30:10.153Z,831.00
2024-03-08T00:31:10.024Z,832.00
2024-03-08T00:32:10.023Z,829.00
2024-03-08T00:33:10.092Z,830.00
2024-03-08T00:34:10.027Z,831.00
2024-03-08T00:35:10.235Z,830.00
2024-03-08T00:36:10.237Z,828.00
2024-03-08T00:37:10.318Z,826.00
2024-03-08T00:38:10.447Z,826.00
2024-03-08T00:39:10.610Z,826.00
2024-03-08T00:40:10.912Z,824.00
2024-03-08T00:41:10.778Z,825.00
2024-03-08T00:42:10.926Z,822.00
2024-03-08T00:43:10.992Z,817.00
2024-03-08T00:44:11.086Z,815.00
2024-03-08T00:45:11.362Z,817.00
2024-03-08T00:46:11.228Z,822.00
2024-03-08T00:47:11.286Z,823.00
2024-03-08T00:48:11.404Z,819.00
2024-03-08T00:49:11.341Z,819.00
2024-03-08T00:50:11.406Z,820.00
2024-03-08T00:51:11.455Z,817.00
2024-03-08T00:52:11.505Z,819.00
2024-03-08T00:53:11.534Z,817.00
2024-03-08T00:54:11.622Z,819.00
2024-03-08T00:55:11.720Z,817.00
2024-03-08T00:56:11.656Z,817.00
2024-03-08T00:57:11.943Z,816.00
2024-03-08T00:58:11.852Z,816.00
2024-03-08T00:59:11.949Z,817.00
2024-03-08T01:00:12.127Z,816.00
2024-03-08T01:01:12.173Z,812.00
2024-03-08T01:02:12.260Z,811.00
2024-03-08T01:03:12.408Z,813.00
2024-03-08T01:04:12.425Z,813.00
2024-03-08T01:05:12.531Z,813.00
2024-03-08T01:06:12.658Z,811.00
2024-03-08T01:07:12.728Z,805.00
2024-03-08T01:08:12.867Z,807.00
2024-03-08T01:09:12.980Z,809.00
2024-03-08T01:10:13.026Z,813.00
2024-03-08T01:11:13.159Z,812.00
2024-03-08T01:12:13.268Z,811.00
2024-03-08T01:13:13.346Z,811.00
2024-03-08T01:14:13.464Z,807.00
2024-03-08T01:15:13.621Z,805.00
2024-03-08T01:16:16.470Z,804.00
2024-03-08T01:17:13.705Z,804.00
2024-03-08T01:18:13.753Z,803.00
2024-03-08T01:19:13.741Z,804.00
2024-03-08T01:20:13.745Z,801.00
2024-03-08T01:21:13.761Z,803.00
2024-03-08T01:22:13.694Z,803.00
2024-03-08T01:23:13.701Z,803.00
2024-03-08T01:24:13.733Z,804.00
2024-03-08T01:25:13.739Z,803.00
2024-03-08T01:26:13.711Z,801.00
2024-03-08T01:27:13.795Z,806.00
2024-03-08T01:28:13.709Z,806.00
2024-03-08T01:29:13.719Z,806.00
2024-03-08T01:30:13.880Z,806.00
2024-03-08T01:31:13.727Z,803.00
2024-03-08T01:32:13.715Z,803.00
2024-03-08T01:33:13.793Z,803.00
2024-03-08T01:34:13.723Z,800.00
2024-03-08T01:35:13.765Z,799.00
2024-03-08T01:36:13.782Z,799.00
2024-03-08T01:37:13.760Z,799.00
2024-03-08T01:38:13.830Z,796.00
2024-03-08T01:39:13.836Z,793.00
2024-03-08T01:40:13.766Z,790.00
2024-03-08T01:41:13.778Z,792.00
2024-03-08T01:42:13.867Z,792.00
2024-03-08T01:43:13.781Z,792.00
2024-03-08T01:44:13.776Z,793.00
2024-03-08T01:45:13.797Z,790.00
2024-03-08T01:46:13.775Z,790.00
2024-03-08T01:47:13.793Z,788.00
2024-03-08T01:48:13.911Z,788.00
2024-03-08T01:49:13.776Z,788.00
2024-03-08T01:50:13.901Z,790.00
2024-03-08T01:51:14.014Z,791.00
2024-03-08T01:52:14.108Z,790.00
2024-03-08T01:53:14.203Z,790.00
2024-03-08T01:54:14.344Z,792.00
2024-03-08T01:55:14.396Z,793.00
2024-03-08T01:56:14.481Z,788.00
2024-03-08T01:57:14.665Z,785.00
2024-03-08T01:58:14.702Z,782.00
2024-03-08T01:59:14.817Z,778.00
2024-03-08T02:00:14.955Z,779.00
2024-03-08T02:01:15.026Z,780.00
2024-03-08T02:02:15.087Z,780.00
2024-03-08T02:03:15.249Z,778.00
2024-03-08T02:04:15.355Z,775.00
2024-03-08T02:05:15.498Z,779.00
2024-03-08T02:06:16.066Z,780.00
2024-03-08T02:07:15.763Z,781.00
2024-03-08T02:08:15.825Z,779.00
2024-03-08T02:09:15.966Z,781.00
2024-03-08T02:10:16.093Z,779.00
2024-03-08T02:11:16.231Z,780.00
2024-03-08T02:12:16.295Z,784.00
2024-03-08T02:13:16.319Z,783.00
2024-03-08T02:14:16.418Z,778.00
2024-03-08T02:15:16.560Z,778.00
2024-03-08T02:16:16.613Z,778.00
2024-03-08T02:17:16.733Z,776.00
2024-03-08T02:18:16.829Z,774.00
2024-03-08T02:19:16.975Z,773.00
2024-03-08T02:20:17.078Z,773.00
2024-03-08T02:21:17.285Z,770.00
2024-03-08T02:22:17.422Z,771.00
2024-03-08T02:23:17.482Z,770.00
2024-03-08T02:24:17.668Z,766.00
2024-03-08T02:25:17.660Z,768.00
2024-03-08T02:26:17.756Z,766.00
2024-03-08T02:27:17.980Z,769.00
2024-03-08T02:28:18.005Z,770.00
2024-03-08T02:29:18.117Z,769.00
2024-03-08T02:30:18.238Z,767.00
2024-03-08T02:31:18.286Z,767.00
2024-03-08T02:32:18.360Z,766.00
2024-03-08T02:33:18.544Z,768.00
2024-03-08T02:34:18.544Z,763.00
2024-03-08T02:35:18.664Z,764.00
2024-03-08T02:36:18.885Z,761.00
2024-03-08T02:37:18.860Z,764.00
2024-03-08T02:38:18.919Z,763.00
2024-03-08T02:39:19.024Z,764.00
2024-03-08T02:40:19.103Z,764.00
2024-03-08T02:41:19.207Z,763.00
2024-03-08T02:42:23.236Z,761.00
2024-03-08T02:43:19.356Z,758.00
2024-03-08T02:44:19.341Z,756.00
2024-03-08T02:45:19.357Z,752.00
2024-03-08T02:46:19.353Z,752.00
2024-03-08T02:47:19.366Z,752.00
2024-03-08T02:48:19.453Z,753.00
2024-03-08T02:49:19.361Z,754.00
2024-03-08T02:50:19.354Z,750.00
2024-03-08T02:51:19.371Z,749.00
2024-03-08T02:52:19.369Z,750.00
2024-03-08T02:53:19.384Z,752.00
2024-03-08T02:54:19.446Z,752.00
2024-03-08T02:55:19.388Z,752.00
2024-03-08T02:56:19.398Z,751.00
2024-03-08T02:57:19.415Z,753.00
2024-03-08T02:58:19.374Z,754.00
2024-03-08T02:59:19.373Z,757.00
2024-03-08T03:00:19.425Z,761.00
2024-03-08T03:01:19.415Z,758.00
2024-03-08T03:02:19.377Z,763.00
2024-03-08T03:03:19.422Z,763.00
2024-03-08T03:04:19.384Z,758.00
2024-03-08T03:05:19.388Z,757.00
2024-03-08T03:06:19.543Z,755.00
2024-03-08T03:07:19.384Z,755.00
2024-03-08T03:08:19.561Z,754.00
2024-03-08T03:09:19.419Z,755.00
2024-03-08T03:10:19.511Z,758.00
2024-03-08T03:11:19.703Z,762.00
2024-03-08T03:12:24.201Z,761.00
2024-03-08T03:13:19.745Z,762.00
2024-03-08T03:14:19.741Z,758.00
2024-03-08T03:15:19.856Z,758.00
2024-03-08T03:16:19.738Z,760.00
2024-03-08T03:17:29.222Z,763.00
2024-03-08T03:18:19.842Z,761.00
2024-03-08T03:19:19.765Z,762.00
2024-03-08T03:20:19.742Z,759.00
2024-03-08T03:21:19.863Z,756.00
2024-03-08T03:22:19.750Z,756.00
2024-03-08T03:23:19.754Z,758.00
2024-03-08T03:24:19.748Z,759.00
2024-03-08T03:25:19.752Z,760.00
2024-03-08T03:26:19.747Z,759.00
2024-03-08T03:27:19.806Z,753.00
2024-03-08T03:28:19.825Z,753.00
2024-03-08T03:29:19.770Z,751.00
2024-03-08T03:30:19.752Z,750.00
2024-03-08T03:31:19.763Z,750.00
2024-03-08T03:32:19.765Z,747.00
2024-03-08T03:33:19.796Z,747.00
2024-03-08T03:34:19.795Z,750.00
2024-03-08T03:35:19.808Z,750.00
2024-03-08T03:36:19.818Z,749.00
2024-03-08T03:37:19.804Z,749.00
2024-03-08T03:38:19.793Z,749.00
2024-03-08T03:39:19.833Z,750.00
2024-03-08T03:40:19.805Z,750.00
2024-03-08T03:41:19.814Z,753.00
2024-03-08T03:42:40.811Z,749.00
2024-03-08T03:43:19.833Z,747.00
2024-03-08T03:44:19.827Z,745.00
2024-03-08T03:45:19.835Z,747.00
2024-03-08T03:46:19.811Z,748.00
2024-03-08T03:47:19.852Z,744.00
2024-03-08T03:48:19.907Z,747.00
2024-03-08T03:49:19.858Z,748.00
2024-03-08T03:50:19.871Z,747.00
2024-03-08T03:51:19.893Z,748.00
2024-03-08T03:52:19.853Z,748.00
2024-03-08T03:53:19.890Z,750.00
2024-03-08T03:54:19.856Z,752.00
2024-03-08T03:55:19.848Z,754.00
2024-03-08T03:56:19.864Z,748.00
2024-03-08T03:57:19.860Z,745.00
2024-03-08T03:58:19.859Z,747.00
2024-03-08T03:59:19.868Z,745.00
2024-03-08T04:00:19.994Z,745.00
2024-03-08T04:01:19.902Z,745.00
2024-03-08T04:02:19.852Z,741.00
2024-03-08T04:03:19.899Z,739.00
2024-03-08T04:04:19.866Z,737.00
2024-03-08T04:05:19.870Z,737.00
2024-03-08T04:06:19.917Z,736.00
2024-03-08T04:07:19.884Z,737.00
2024-03-08T04:08:19.863Z,737.00
2024-03-08T04:09:19.875Z,738.00
2024-03-08T04:10:19.869Z,739.00
2024-03-08T04:11:19.914Z,736.00
2024-03-08T04:12:24.278Z,737.00
2024-03-08T04:13:19.873Z,735.00
2024-03-08T04:14:19.881Z,732.00
2024-03-08T04:15:19.920Z,731.00
2024-03-08T04:16:19.877Z,730.00
2024-03-08T04:17:19.908Z,728.00
2024-03-08T04:18:19.998Z,730.00
2024-03-08T04:19:19.870Z,730.00
2024-03-08T04:20:19.876Z,729.00
2024-03-08T04:21:19.907Z,731.00
2024-03-08T04:22:19.882Z,734.00
2024-03-08T04:23:19.897Z,730.00
2024-03-08T04:24:19.896Z,728.00
2024-03-08T04:25:19.876Z,725.00
2024-03-08T04:26:20.111Z,724.00
2024-03-08T04:27:19.945Z,727.00
2024-03-08T04:28:19.923Z,727.00
2024-03-08T04:29:19.931Z,726.00
2024-03-08T04:30:19.962Z,722.00
2024-03-08T04:31:19.950Z,723.00
2024-03-08T04:32:19.975Z,723.00
2024-03-08T04:33:20.036Z,725.00
2024-03-08T04:34:19.962Z,727.00
2024-03-08T04:35:19.937Z,724.00
2024-03-08T04:36:19.967Z,723.00
2024-03-08T04:37:27.660Z,732.00
2024-03-08T04:38:27.659Z,729.00
2024-03-08T04:39:27.681Z,728.00
2024-03-08T04:40:27.660Z,731.00
2024-03-08T04:41:27.663Z,734.00
2024-03-08T04:42:27.666Z,738.00
2024-03-08T04:43:27.668Z,741.00
2024-03-08T04:44:27.649Z,740.00
2024-03-08T04:45:27.663Z,738.00
2024-03-08T04:46:27.661Z,737.00
2024-03-08T04:47:27.710Z,737.00
2024-03-08T04:48:27.741Z,739.00
2024-03-08T04:49:27.676Z,738.00
2024-03-08T04:50:27.713Z,734.00
2024-03-08T04:51:27.781Z,733.00
2024-03-08T04:52:32.848Z,732.00
2024-03-08T04:53:27.846Z,731.00
2024-03-08T04:54:27.843Z,727.00
2024-03-08T04:55:27.861Z,727.00
2024-03-08T04:56:27.834Z,723.00
2024-03-08T04:57:27.889Z,721.00
2024-03-08T04:58:27.843Z,723.00
2024-03-08T04:59:27.849Z,723.00
2024-03-08T05:00:27.881Z,723.00
2024-03-08T05:01:27.863Z,722.00
2024-03-08T05:02:27.953Z,719.00
2024-03-08T05:03:28.032Z,721.00
2024-03-08T05:04:28.094Z,718.00
2024-03-08T05:05:28.169Z,716.00
2024-03-08T05:06:28.237Z,716.00
2024-03-08T05:07:28.322Z,719.00
2024-03-08T05:08:28.393Z,719.00
2024-03-08T05:09:28.460Z,719.00
2024-03-08T05:10:28.531Z,721.00
2024-03-08T05:11:28.668Z,720.00
2024-03-08T05:12:28.687Z,720.00
2024-03-08T05:13:28.759Z,721.00
2024-03-08T05:14:28.932Z,722.00
2024-03-08T05:15:33.216Z,722.00
2024-03-08T05:16:28.886Z,720.00
2024-03-08T05:17:28.994Z,718.00
2024-03-08T05:18:28.944Z,717.00
2024-03-08T05:19:30.967Z,716.00
2024-03-08T05:20:28.915Z,718.00
2024-03-08T05:21:28.919Z,717.00
2024-03-08T05:22:28.896Z,717.00
2024-03-08T05:23:28.960Z,716.00
2024-03-08T05:24:28.904Z,716.00
2024-03-08T05:25:28.899Z,715.00
2024-03-08T05:26:28.970Z,714.00
2024-03-08T05:27:28.928Z,715.00
2024-03-08T05:28:28.897Z,715.00
2024-03-08T05:29:28.969Z,717.00
2024-03-08T05:30:28.906Z,716.00
2024-03-08T05:31:28.910Z,713.00
2024-03-08T05:32:31.579Z,714.00
2024-03-08T05:33:29.064Z,714.00
2024-03-08T05:34:28.908Z,712.00
2024-03-08T05:35:28.987Z,709.00
2024-03-08T05:36:28.984Z,709.00
2024-03-08T05:37:28.976Z,710.00
2024-03-08T05:38:28.974Z,709.00
2024-03-08T05:39:28.989Z,708.00
2024-03-08T05:40:28.940Z,710.00
2024-03-08T05:41:28.972Z,711.00
2024-03-08T05:42:28.955Z,709.00
2024-03-08T05:43:28.934Z,711.00
2024-03-08T05:44:28.972Z,712.00
2024-03-08T05:45:28.937Z,714.00
2024-03-08T05:46:28.951Z,712.00
2024-03-08T05:47:31.588Z,712.00
2024-03-08T05:48:29.016Z,709.00
2024-03-08T05:49:28.932Z,708.00
2024-03-08T05:50:29.057Z,707.00
2024-03-08T05:51:28.966Z,706.00
2024-03-08T05:52:28.964Z,704.00
2024-03-08T05:53:28.988Z,705.00
2024-03-08T05:54:29.029Z,704.00
2024-03-08T05:55:28.944Z,705.00
2024-03-08T05:56:28.976Z,704.00
2024-03-08T05:57:28.953Z,704.00
2024-03-08T05:58:28.961Z,702.00
2024-03-08T05:59:28.962Z,702.00
2024-03-08T06:00:29.013Z,703.00
2024-03-08T06:01:28.978Z,707.00
2024-03-08T06:02:28.977Z,710.00
2024-03-08T06:03:28.955Z,709.00
2024-03-08T06:04:28.974Z,706.00
2024-03-08T06:05:28.986Z,705.00
2024-03-08T06:06:28.983Z,705.00
2024-03-08T06:07:28.947Z,705.00
2024-03-08T06:08:29.026Z,706.00
2024-03-08T06:09:28.961Z,706.00
2024-03-08T06:10:28.982Z,709.00
2024-03-08T06:11:29.080Z,709.00
2024-03-08T06:12:28.998Z,707.00
2024-03-08T06:13:30.749Z,706.00
2024-03-08T06:14:28.980Z,705.00
2024-03-08T06:15:29.040Z,705.00
2024-03-08T06:16:28.989Z,706.00
2024-03-08T06:17:29.004Z,703.00
2024-03-08T06:18:29.085Z,702.00
2024-03-08T06:19:29.015Z,700.00
2024-03-08T06:20:28.980Z,699.00
2024-03-08T06:21:29.088Z,701.00
2024-03-08T06:22:28.985Z,700.00
2024-03-08T06:23:28.999Z,699.00
2024-03-08T06:24:28.999Z,699.00
2024-03-08T06:25:28.971Z,701.00
2024-03-08T06:26:30.596Z,701.00
2024-03-08T06:27:29.039Z,701.00
2024-03-08T06:28:29.068Z,702.00
2024-03-08T06:29:29.105Z,701.00
2024-03-08T06:30:29.150Z,700.00
2024-03-08T06:31:29.248Z,701.00
2024-03-08T06:32:29.448Z,700.00
2024-03-08T06:33:29.539Z,700.00
2024-03-08T06:34:29.505Z,751.00
2024-03-08T06:35:29.646Z,767.00
2024-03-08T06:36:29.657Z,773.00
2024-03-08T06:37:29.736Z,759.00
2024-03-08T06:38:29.946Z,752.00
2024-03-08T06:39:29.937Z,747.00
2024-03-08T06:40:30.033Z,746.00
2024-03-08T06:41:30.183Z,752.00
2024-03-08T06:42:30.162Z,754.00
2024-03-08T06:43:30.219Z,755.00
2024-03-08T06:44:30.335Z,758.00
2024-03-08T06:45:30.390Z,757.00
2024-03-08T06:46:30.447Z,760.00
2024-03-08T06:47:30.601Z,782.00
2024-03-08T06:48:30.809Z,814.00
2024-03-08T06:49:30.835Z,835.00
2024-03-08T06:50:30.946Z,826.00
2024-03-08T06:51:30.959Z,884.00
2024-03-08T06:52:31.025Z,897.00
2024-03-08T06:53:31.111Z,911.00
2024-03-08T06:54:31.175Z,904.00
2024-03-08T06:55:31.223Z,907.00
2024-03-08T06:56:31.342Z,950.00
2024-03-08T06:57:31.422Z,1015.00
2024-03-08T06:58:31.493Z,1014.00
2024-03-08T06:59:31.535Z,1045.00
2024-03-08T07:00:31.641Z,1095.00
2024-03-08T07:01:31.752Z,1084.00
2024-03-08T07:02:31.806Z,1077.00
2024-03-08T07:03:31.854Z,1070.00
2024-03-08T07:04:31.927Z,1064.00
2024-03-08T07:05:32.466Z,1061.00
2024-03-08T07:06:32.065Z,1060.00
2024-03-08T07:07:32.049Z,1061.00
2024-03-08T07:08:32.195Z,1059.00
2024-03-08T07:09:32.849Z,1051.00
2024-03-08T07:10:32.169Z,1047.00
2024-03-08T07:11:32.298Z,1045.00
2024-03-08T07:12:32.290Z,1045.00
2024-03-08T07:13:32.322Z,1045.00
2024-03-08T07:14:32.352Z,1043.00
2024-03-08T07:15:32.343Z,1042.00
2024-03-08T07:16:32.406Z,1037.00
2024-03-08T07:17:32.458Z,1034.00
2024-03-08T07:18:32.528Z,1035.00
2024-03-08T07:19:32.474Z,1031.00
2024-03-08T07:20:32.588Z,1034.00
2024-03-08T07:21:32.610Z,1032.00
2024-03-08T07:22:32.626Z,1034.00
2024-03-08T07:23:32.883Z,1035.00
2024-03-08T07:24:32.843Z,1036.00
2024-03-08T07:25:32.918Z,1038.00
2024-03-08T07:26:33.074Z,1033.00
2024-03-08T07:27:33.054Z,1034.00
2024-03-08T07:28:33.157Z,1033.00
2024-03-08T07:29:33.226Z,1032.00
2024-03-08T07:30:33.387Z,1031.00
2024-03-08T07:31:33.355Z,1028.00
2024-03-08T07:32:33.469Z,1024.00
2024-03-08T07:33:33.570Z,1006.00
2024-03-08T07:34:33.590Z,997.00
2024-03-08T07:35:33.704Z,998.00
2024-03-08T07:36:33.747Z,1009.00
2024-03-08T07:37:33.813Z,1015.00
2024-03-08T07:38:33.959Z,1020.00
2024-03-08T07:39:33.987Z,1019.00
2024-03-08T07:40:34.058Z,1025.00
2024-03-08T07:41:34.156Z,1023.00
2024-03-08T07:42:34.213Z,1025.00
2024-03-08T07:43:34.476Z,1023.00
2024-03-08T07:44:34.389Z,1018.00
2024-03-08T07:45:34.404Z,1019.00
2024-03-08T07:46:34.498Z,1019.00
2024-03-08T07:47:34.573Z,1019.00
2024-03-08T07:48:34.729Z,1019.00
2024-03-08T07:49:34.719Z,1017.00
2024-03-08T07:50:34.837Z,1018.00
2024-03-08T07:51:34.913Z,1022.00
2024-03-08T07:52:34.973Z,1014.00
2024-03-08T07:53:35.091Z,1021.00
2024-03-08T07:54:35.205Z,1046.00
2024-03-08T07:55:35.195Z,1049.00
2024-03-08T07:56:36.058Z,1059.00
2024-03-08T07:57:35.322Z,1068.00
2024-03-08T07:58:35.853Z,1123.00
2024-03-08T07:59:35.371Z,1247.00
2024-03-08T08:00:35.423Z,1245.00
2024-03-08T08:01:35.577Z,1273.00
2024-03-08T08:02:37.850Z,1353.00
2024-03-08T08:03:35.491Z,1366.00
2024-03-08T08:04:35.544Z,1382.00
2024-03-08T08:05:35.493Z,1414.00
2024-03-08T08:06:35.540Z,1435.00
2024-03-08T08:07:35.537Z,1451.00
2024-03-08T08:08:35.512Z,1478.00
2024-03-08T08:09:35.910Z,1548.00
2024-03-08T08:10:35.567Z,1552.00
2024-03-08T08:11:35.512Z,1566.00
2024-03-08T08:12:35.519Z,1578.00
2024-03-08T08:13:35.524Z,1613.00
2024-03-08T08:14:35.491Z,1655.00
2024-03-08T08:15:35.790Z,1315.00
2024-03-08T08:16:35.509Z,1060.00
2024-03-08T08:17:35.615Z,919.00
2024-03-08T08:18:35.527Z,869.00
2024-03-08T08:19:35.583Z,883.00
2024-03-08T08:20:35.708Z,976.00
2024-03-08T08:21:35.568Z,1082.00
2024-03-08T08:22:35.573Z,1185.00
2024-03-08T08:23:35.554Z,1212.00
2024-03-08T08:24:35.554Z,1211.00
2024-03-08T08:25:35.749Z,1212.00
2024-03-08T08:26:38.043Z,1289.00
2024-03-08T08:27:35.617Z,1290.00
2024-03-08T08:28:35.632Z,1303.00
2024-03-08T08:29:35.586Z,1318.00
2024-03-08T08:30:35.561Z,1327.00
2024-03-08T08:31:35.598Z,1367.00
2024-03-08T08:32:35.589Z,1374.00
2024-03-08T08:33:35.580Z,1393.00
2024-03-08T08:34:35.618Z,1406.00
2024-03-08T08:35:35.587Z,1434.00
2024-03-08T08:36:35.560Z,1442.00
2024-03-08T08:37:35.613Z,1453.00
2024-03-08T08:38:35.577Z,1469.00
2024-03-08T08:39:35.582Z,1511.00
2024-03-08T08:40:35.613Z,1530.00
2024-03-08T08:41:35.584Z,1551.00
2024-03-08T08:42:35.574Z,1569.00
2024-03-08T08:43:37.270Z,1596.00
2024-03-08T08:44:35.620Z,1625.00
2024-03-08T08:45:35.611Z,1631.00
2024-03-08T08:46:38.192Z,1666.00
2024-03-08T08:47:35.660Z,1730.00
2024-03-08T08:48:35.601Z,1766.00
2024-03-08T08:49:35.641Z,1802.00
2024-03-08T08:50:35.597Z,1816.00
2024-03-08T08:51:36.790Z,1818.00
2024-03-08T08:52:36.225Z,1812.00
2024-03-08T08:53:35.620Z,1798.00
2024-03-08T08:54:35.612Z,1789.00
2024-03-08T08:55:35.661Z,1694.00
2024-03-08T08:56:35.601Z,1734.00
2024-03-08T08:57:35.612Z,1641.00
2024-03-08T08:58:35.634Z,1276.00
2024-03-08T08:59:35.629Z,983.00
2024-03-08T09:00:35.644Z,1006.00
2024-03-08T09:01:35.700Z,1192.00
2024-03-08T09:02:35.686Z,1403.00
2024-03-08T09:03:35.656Z,1459.00
2024-03-08T09:04:35.648Z,1458.00
2024-03-08T09:05:38.950Z,1314.00
2024-03-08T09:06:35.633Z,1308.00
2024-03-08T09:07:35.668Z,1305.00
2024-03-08T09:08:35.638Z,1202.00
2024-03-08T09:09:35.674Z,1249.00
2024-03-08T09:10:35.692Z,1251.00
2024-03-08T09:11:35.771Z,1251.00
2024-03-08T09:12:43.411Z,1251.00
2024-03-08T09:13:43.384Z,1232.00
2024-03-08T09:14:43.414Z,1212.00
2024-03-08T09:15:43.375Z,1191.00
2024-03-08T09:16:43.476Z,1176.00
2024-03-08T09:17:43.534Z,1172.00
2024-03-08T09:18:43.447Z,1168.00
2024-03-08T09:19:43.449Z,1153.00
2024-03-08T09:20:43.443Z,1138.00
2024-03-08T09:21:43.556Z,1129.00
2024-03-08T09:22:43.736Z,1129.00
2024-03-08T09:23:43.803Z,1128.00
2024-03-08T09:24:43.887Z,1127.00
2024-03-08T09:25:46.783Z,1125.00
2024-03-08T09:26:44.000Z,1120.00
2024-03-08T09:27:44.067Z,1110.00
2024-03-08T09:28:44.015Z,1102.00
2024-03-08T09:29:43.986Z,1099.00
2024-03-08T09:30:48.618Z,1101.00
2024-03-08T09:31:45.072Z,1106.00
2024-03-08T09:32:44.014Z,1113.00
2024-03-08T09:33:44.008Z,1120.00
2024-03-08T09:34:44.048Z,1130.00
2024-03-08T09:35:44.015Z,1131.00
2024-03-08T09:36:44.072Z,1133.00
2024-03-08T09:37:44.177Z,1145.00
2024-03-08T09:38:44.485Z,1158.00
2024-03-08T09:39:44.054Z,1175.00
2024-03-08T09:40:44.123Z,1192.00
2024-03-08T09:41:44.083Z,1215.00
2024-03-08T09:42:44.082Z,1299.00
2024-03-08T09:43:44.109Z,1341.00
2024-03-08T09:44:44.052Z,1389.00
2024-03-08T09:45:44.054Z,1014.00
2024-03-08T09:46:44.119Z,699.00
2024-03-08T09:47:44.136Z,606.00
2024-03-08T09:48:44.163Z,579.00
2024-03-08T09:49:44.236Z,553.00
2024-03-08T09:50:44.224Z,569.00
2024-03-08T09:51:44.260Z,567.00
2024-03-08T09:52:44.424Z,561.00
2024-03-08T09:53:44.458Z,553.00
2024-03-08T09:54:44.550Z,544.00
2024-03-08T09:55:44.716Z,544.00
2024-03-08T09:56:44.742Z,554.00
2024-03-08T09:57:44.860Z,686.00
2024-03-08T09:58:44.980Z,773.00
2024-03-08T09:59:45.037Z,908.00
2024-03-08T10:00:45.104Z,957.00
2024-03-08T10:01:45.206Z,900.00
2024-03-08T10:02:45.297Z,886.00
2024-03-08T10:03:45.381Z,937.00
2024-03-08T10:04:45.536Z,949.00
2024-03-08T10:05:45.631Z,980.00
2024-03-08T10:06:45.718Z,992.00
2024-03-08T10:07:45.715Z,998.00
2024-03-08T10:08:46.382Z,1001.00
2024-03-08T10:09:45.855Z,1000.00
2024-03-08T10:10:46.022Z,1003.00
2024-03-08T10:11:46.065Z,1010.00
2024-03-08T10:12:46.104Z,1017.00
2024-03-08T10:13:46.235Z,1018.00
2024-03-08T10:14:46.296Z,1023.00
2024-03-08T10:15:46.372Z,1022.00
2024-03-08T10:16:46.522Z,1024.00
2024-03-08T10:17:46.577Z,1027.00
2024-03-08T10:18:46.676Z,1029.00
2024-03-08T10:19:46.801Z,1032.00
2024-03-08T10:20:46.885Z,1038.00
2024-03-08T10:21:46.990Z,1037.00
2024-03-08T10:22:58.139Z,1035.00
2024-03-08T10:23:48.101Z,1042.00
2024-03-08T10:24:47.134Z,1045.00
2024-03-08T10:25:47.140Z,1050.00
2024-03-08T10:26:47.132Z,1057.00
2024-03-08T10:27:47.149Z,1072.00
2024-03-08T10:28:47.224Z,1140.00
2024-03-08T10:29:47.158Z,1163.00
2024-03-08T10:30:47.171Z,1176.00
2024-03-08T10:31:47.233Z,1216.00
2024-03-08T10:32:47.288Z,1232.00
2024-03-08T10:33:47.364Z,1251.00
2024-03-08T10:34:47.443Z,1295.00
2024-03-08T10:35:47.490Z,1324.00
2024-03-08T10:36:47.596Z,1364.00
2024-03-08T10:37:47.706Z,1398.00
2024-03-08T10:38:47.770Z,1416.00
2024-03-08T10:39:47.834Z,1438.00
2024-03-08T10:40:47.969Z,1469.00
2024-03-08T10:41:48.008Z,1503.00
2024-03-08T10:42:48.081Z,1539.00
2024-03-08T10:43:48.207Z,1551.00
2024-03-08T10:44:48.239Z,1554.00
2024-03-08T10:45:48.347Z,1558.00
2024-03-08T10:46:48.546Z,1399.00
2024-03-08T10:47:48.624Z,1362.00
2024-03-08T10:48:48.608Z,1115.00
2024-03-08T10:49:48.773Z,1135.00
2024-03-08T10:50:48.832Z,1202.00
2024-03-08T10:51:48.941Z,1270.00
2024-03-08T10:52:49.090Z,1284.00
2024-03-08T10:53:49.193Z,1316.00
2024-03-08T10:54:49.277Z,1382.00
2024-03-08T10:55:49.383Z,1423.00
2024-03-08T10:56:49.492Z,1440.00
2024-03-08T10:57:49.652Z,1458.00
2024-03-08T10:58:49.784Z,1476.00
2024-03-08T10:59:49.807Z,1505.00
2024-03-08T11:00:49.901Z,1511.00
2024-03-08T11:01:50.084Z,1520.00
2024-03-08T11:02:50.069Z,1531.00
2024-03-08T11:03:50.399Z,1541.00
2024-03-08T11:04:50.380Z,1542.00
2024-03-08T11:05:50.331Z,1551.00
2024-03-08T11:06:50.410Z,1554.00
2024-03-08T11:07:50.510Z,1560.00
2024-03-08T11:08:50.586Z,1565.00
2024-03-08T11:09:50.652Z,1564.00
2024-03-08T11:10:50.765Z,1573.00
2024-03-08T11:11:50.878Z,1578.00
2024-03-08T11:12:50.890Z,1580.00
2024-03-08T11:13:50.989Z,1587.00
2024-03-08T11:14:51.297Z,1600.00
2024-03-08T11:15:51.167Z,1614.00
2024-03-08T11:16:51.300Z,1620.00
2024-03-08T11:17:51.349Z,1621.00
2024-03-08T11:18:51.411Z,1640.00
2024-03-08T11:19:51.510Z,1649.00
2024-03-08T11:20:51.565Z,1641.00
2024-03-08T11:21:51.631Z,1649.00
2024-03-08T11:22:51.840Z,1671.00
2024-03-08T11:23:51.781Z,1690.00
2024-03-08T11:24:51.908Z,1704.00
2024-03-08T11:25:51.970Z,1708.00
2024-03-08T11:26:52.035Z,1709.00
2024-03-08T11:27:52.112Z,1715.00
2024-03-08T11:28:52.283Z,1722.00
2024-03-08T11:29:52.295Z,1724.00
2024-03-08T11:30:52.370Z,1730.00
2024-03-08T11:31:52.516Z,1735.00
2024-03-08T11:32:52.601Z,1750.00
2024-03-08T11:33:52.617Z,1757.00
2024-03-08T11:34:52.825Z,1768.00
2024-03-08T11:35:52.762Z,1783.00
2024-03-08T11:36:52.826Z,1791.00
2024-03-08T11:37:52.981Z,1793.00
2024-03-08T11:38:53.058Z,1787.00
2024-03-08T11:39:53.100Z,1738.00
2024-03-08T11:40:53.200Z,1710.00
2024-03-08T11:41:53.247Z,1406.00
2024-03-08T11:42:53.324Z,1371.00
2024-03-08T11:43:53.428Z,1299.00
2024-03-08T11:44:53.515Z,1336.00
2024-03-08T11:45:53.571Z,1506.00
2024-03-08T11:46:53.772Z,1524.00
2024-03-08T11:47:56.401Z,1516.00
2024-03-08T11:48:53.763Z,1513.00
2024-03-08T11:49:53.799Z,1523.00
2024-03-08T11:50:53.741Z,1514.00
2024-03-08T11:51:53.768Z,1509.00
2024-03-08T11:52:53.791Z,1510.00
2024-03-08T11:53:53.735Z,1519.00
2024-03-08T11:54:53.796Z,1543.00
2024-03-08T11:55:53.816Z,1551.00
2024-03-08T11:56:53.763Z,1567.00
2024-03-08T11:57:53.751Z,1567.00
2024-03-08T11:58:53.830Z,1596.00
2024-03-08T11:59:57.111Z,1606.00
2024-03-08T12:00:53.765Z,1614.00
2024-03-08T12:01:53.950Z,1607.00
2024-03-08T12:02:53.788Z,1599.00
2024-03-08T12:03:53.768Z,1591.00
2024-03-08T12:04:53.898Z,1584.00
2024-03-08T12:05:57.223Z,1575.00
2024-03-08T12:06:53.773Z,1564.00
2024-03-08T12:07:53.850Z,1548.00
2024-03-08T12:08:53.765Z,1532.00
2024-03-08T12:09:53.783Z,1517.00
2024-03-08T12:10:53.814Z,1601.00
2024-03-08T12:11:53.828Z,1611.00
2024-03-08T12:12:53.793Z,1629.00
2024-03-08T12:13:53.845Z,1650.00
2024-03-08T12:14:53.800Z,1704.00
2024-03-08T12:15:53.769Z,1740.00
2024-03-08T12:16:53.930Z,1746.00
2024-03-08T12:17:54.899Z,1760.00
2024-03-08T12:18:53.781Z,1805.00
2024-03-08T12:19:53.819Z,1828.00